Time;durP1;ratioP1;P1;durP2;ratioP2;P2;SDS_P1;SDS_P2;PMS_P1;PMS_P2;Temp;Humidity;BMP_temperature;BMP_pressure;BME280_temperature;BME280_humidity;BME280_pressure;Samples;Min_cycle;Max_cycle;Signal;HPM_P1;HPM_P2
2023/03/07 00:02:30;;;;;;;21.70;8.50;;;;;;;-4.70;83.36;98361.74;105730;1253;68177;-71
2023/03/07 00:05:18;;;;;;;20.30;6.30;;;;;;;-4.72;83.68;98352.33;105153;1256;1004185;-72
2023/03/07 00:08:05;;;;;;;17.20;6.20;;;;;;;-4.72;83.88;98354.23;105792;1255;59267;-70
2023/03/07 00:10:52;;;;;;;20.70;7.40;;;;;;;-4.72;84.21;98353.71;105983;1253;60445;-68
2023/03/07 00:13:39;;;;;;;20.20;6.40;;;;;;;-4.73;84.12;98345.94;106127;1252;72633;-70
2023/03/07 00:16:26;;;;;;;18.20;7.10;;;;;;;-4.73;84.83;98350.48;105904;1254;69230;-71
2023/03/07 00:19:13;;;;;;;18.20;6.70;;;;;;;-4.73;84.97;98348.21;106067;1252;73918;-71
2023/03/07 00:22:00;;;;;;;16.60;6.20;;;;;;;-4.71;85.17;98347.41;106294;1252;59235;-69
2023/03/07 00:24:47;;;;;;;14.30;4.90;;;;;;;-4.71;85.20;98341.34;106181;1253;237308;-68
2023/03/07 00:27:34;;;;;;;20.80;7.20;;;;;;;-4.71;85.63;98339.83;106014;1253;73729;-70
2023/03/07 00:30:21;;;;;;;21.00;7.20;;;;;;;-4.72;85.52;98337.41;106127;1252;69417;-68
2023/03/07 00:33:08;;;;;;;17.30;6.40;;;;;;;-4.71;85.70;98328.55;105777;1256;72217;-71
2023/03/07 00:36:01;;;;;;;16.60;6.40;;;;;;;-4.69;85.84;98330.39;104992;1255;1003089;-70
2023/03/07 00:38:50;;;;;;;17.40;5.70;;;;;;;-4.68;86.00;98329.83;105405;1256;61982;-69
2023/03/07 00:41:37;;;;;;;17.70;5.50;;;;;;;-4.70;85.81;98327.30;105373;1261;74106;-70
2023/03/07 00:44:26;;;;;;;20.60;7.10;;;;;;;-4.71;85.95;98325.45;105591;1256;66951;-70
2023/03/07 00:47:13;;;;;;;21.10;7.30;;;;;;;-4.74;86.21;98316.05;105845;1257;73030;-72
2023/03/07 00:50:00;;;;;;;17.70;6.90;;;;;;;-4.75;86.50;98312.48;105584;1256;59525;-72
2023/03/07 00:52:47;;;;;;;19.90;7.50;;;;;;;-4.74;86.65;98312.27;105096;1260;1002451;-73
2023/03/07 00:55:34;;;;;;;21.60;7.20;;;;;;;-4.75;86.95;98310.77;105012;1261;1003478;-72
2023/03/07 00:58:20;;;;;;;15.30;5.80;;;;;;;-4.76;87.30;98312.15;104634;1258;1002816;-71
2023/03/07 01:01:12;;;;;;;18.10;7.30;;;;;;;-4.77;87.38;98307.38;105538;1256;71276;-70
2023/03/07 01:04:00;;;;;;;12.50;4.70;;;;;;;-4.79;87.53;98299.99;105560;1256;59705;-72
2023/03/07 01:06:47;;;;;;;14.20;5.90;;;;;;;-4.78;88.19;98296.51;105059;1260;1003456;-71
2023/03/07 01:09:34;;;;;;;20.50;6.70;;;;;;;-4.80;88.53;98289.98;104879;1253;1002937;-71
2023/03/07 01:12:21;;;;;;;15.30;5.80;;;;;;;-4.79;88.19;98292.38;105530;1253;66401;-70
2023/03/07 01:15:09;;;;;;;15.70;5.70;;;;;;;-4.80;88.39;98288.45;106038;1256;74029;-70
2023/03/07 01:17:57;;;;;;;19.20;6.70;;;;;;;-4.80;88.69;98282.39;105317;1252;1002981;-70
2023/03/07 01:20:45;;;;;;;15.30;6.00;;;;;;;-4.78;88.70;98280.21;106052;1253;60660;-70
2023/03/07 01:23:32;;;;;;;13.30;5.10;;;;;;;-4.77;88.58;98279.84;105290;1252;1003028;-70
2023/03/07 01:26:29;;;;;;;15.50;6.60;;;;;;;-4.76;88.83;98273.91;105046;1253;1003174;-70
2023/03/07 01:29:16;;;;;;;16.30;6.20;;;;;;;-4.76;88.93;98267.89;105833;1252;72092;-70
2023/03/07 01:32:04;;;;;;;18.60;7.60;;;;;;;-4.76;88.94;98265.25;105691;1253;59678;-70
2023/03/07 01:34:51;;;;;;;21.30;7.20;;;;;;;-4.75;89.15;98263.14;105980;1257;59513;-71
2023/03/07 01:37:38;;;;;;;16.90;6.50;;;;;;;-4.73;89.43;98257.53;106004;1253;72893;-71
2023/03/07 01:40:27;;;;;;;14.10;5.90;;;;;;;-4.74;89.10;98248.56;105234;1253;1003189;-70
2023/03/07 01:43:27;;;;;;;16.60;6.00;;;;;;;-4.75;89.45;98250.32;105904;1253;74261;-71
2023/03/07 01:46:27;;;;;;;18.50;7.00;;;;;;;-4.76;89.46;98252.11;105944;1255;59335;-71
2023/03/07 01:49:39;;;;;;;19.50;7.60;;;;;;;-4.75;89.39;98248.60;105933;1256;59770;-70
2023/03/07 01:52:33;;;;;;;19.70;7.30;;;;;;;-4.73;89.39;98248.02;105794;1253;73497;-70
2023/03/07 01:55:32;;;;;;;17.10;7.20;;;;;;;-4.74;89.24;98247.17;105698;1255;68548;-72
2023/03/07 01:58:29;;;;;;;17.30;5.70;;;;;;;-4.75;89.38;98245.52;105246;1252;1003013;-69
2023/03/07 02:01:17;;;;;;;19.90;7.40;;;;;;;-4.78;89.46;98240.59;106150;1256;60873;-69
2023/03/07 02:04:20;;;;;;;20.30;7.50;;;;;;;-4.77;89.39;98240.39;106134;1256;59678;-68
2023/03/07 02:07:09;;;;;;;18.00;7.00;;;;;;;-4.76;89.47;98237.58;106050;1253;72672;-69
2023/03/07 02:09:57;;;;;;;18.70;7.30;;;;;;;-4.76;89.54;98228.42;105832;1256;68474;-70
2023/03/07 02:12:44;;;;;;;21.80;7.60;;;;;;;-4.76;89.79;98233.80;105699;1253;73998;-69
2023/03/07 02:15:33;;;;;;;20.60;8.30;;;;;;;-4.78;89.60;98230.20;105876;1253;59375;-67
2023/03/07 02:18:26;;;;;;;21.70;8.20;;;;;;;-4.79;89.66;98223.33;105646;1255;60635;-69
2023/03/07 02:21:43;;;;;;;14.60;5.70;;;;;;;-4.78;89.99;98221.73;105873;1255;73718;-70
2023/03/07 02:25:23;;;;;;;19.20;7.40;;;;;;;-4.76;90.00;98223.91;105933;1253;67342;-68
2023/03/07 02:28:14;;;;;;;15.80;6.10;;;;;;;-4.78;89.94;98226.39;106034;1253;73136;-68
2023/03/07 02:31:05;;;;;;;15.30;6.50;;;;;;;-4.82;90.22;98221.55;105920;1256;59753;-68
2023/03/07 02:33:53;;;;;;;16.10;6.50;;;;;;;-4.82;90.22;98225.20;105878;1253;61821;-69
2023/03/07 02:36:40;;;;;;;17.70;6.60;;;;;;;-4.82;90.25;98222.80;105833;1255;73549;-69
2023/03/07 02:39:37;;;;;;;20.20;7.50;;;;;;;-4.84;90.07;98218.88;105658;1253;68549;-70
2023/03/07 02:42:31;;;;;;;19.60;7.50;;;;;;;-4.85;90.23;98220.48;105906;1252;73953;-71
2023/03/07 02:45:26;;;;;;;19.60;7.00;;;;;;;-4.87;90.30;98219.04;106291;1257;59511;-72
2023/03/07 02:48:14;;;;;;;20.20;7.30;;;;;;;-4.88;90.52;98219.23;105987;1253;59312;-71
2023/03/07 02:51:01;;;;;;;16.90;6.60;;;;;;;-4.88;90.36;98216.97;105831;1253;73614;-73
2023/03/07 02:53:48;;;;;;;19.50;7.60;;;;;;;-4.89;90.38;98210.09;105964;1253;67841;-74
2023/03/07 02:56:35;;;;;;;19.90;7.20;;;;;;;-4.91;90.17;98206.20;106036;1255;74072;-74
2023/03/07 02:59:22;;;;;;;20.90;7.90;;;;;;;-4.94;90.52;98203.57;106132;1252;59209;-74
2023/03/07 03:02:09;;;;;;;18.30;7.20;;;;;;;-4.97;90.41;98198.89;105840;1255;61606;-73
2023/03/07 03:04:56;;;;;;;21.30;7.40;;;;;;;-5.01;90.49;98196.80;105045;1254;1003069;-73
2023/03/07 03:07:43;;;;;;;19.40;6.00;;;;;;;-5.03;90.71;98196.04;105299;1253;1003497;-72
2023/03/07 03:10:30;;;;;;;20.50;6.80;;;;;;;-5.05;91.19;98194.88;105854;1253;72209;-71
2023/03/07 03:13:18;;;;;;;22.80;7.60;;;;;;;-5.06;91.09;98191.98;104935;1253;1003708;-72
2023/03/07 03:16:06;;;;;;;22.60;7.80;;;;;;;-5.07;91.16;98184.98;105781;1256;59825;-71
2023/03/07 03:18:53;;;;;;;19.40;6.10;;;;;;;-5.10;91.23;98185.96;105780;1253;73609;-71
2023/03/07 03:21:41;;;;;;;22.50;8.20;;;;;;;-5.13;91.89;98186.40;106246;1256;69312;-68
2023/03/07 03:24:27;;;;;;;21.60;7.90;;;;;;;-5.14;91.98;98182.98;106247;1252;73263;-70
2023/03/07 03:27:14;;;;;;;17.00;6.10;;;;;;;-5.13;91.82;98183.64;106075;1257;59277;-70
2023/03/07 03:30:08;;;;;;;19.20;5.90;;;;;;;-5.13;92.32;98176.73;106072;1255;59673;-70
2023/03/07 03:32:55;;;;;;;17.80;7.10;;;;;;;-5.14;92.02;98175.73;105341;1255;1002838;-69
2023/03/07 03:35:42;;;;;;;14.00;5.40;;;;;;;-5.14;91.81;98174.17;105932;1256;69386;-71
2023/03/07 03:38:29;;;;;;;15.50;5.40;;;;;;;-5.17;91.87;98171.20;106177;1251;73210;-70
2023/03/07 03:41:16;;;;;;;16.20;5.90;;;;;;;-5.17;92.07;98166.19;105345;1253;1003370;-70
2023/03/07 03:44:04;;;;;;;19.30;5.90;;;;;;;-5.17;92.57;98162.38;106061;1255;60803;-68
2023/03/07 03:46:52;;;;;;;15.80;5.70;;;;;;;-5.17;92.20;98157.19;106038;1253;73725;-73
2023/03/07 03:49:40;;;;;;;22.30;6.70;;;;;;;-5.17;92.53;98152.37;105313;1253;1003529;-72
2023/03/07 03:52:28;;;;;;;16.00;5.10;;;;;;;-5.18;92.47;98145.85;105893;1253;73118;-70
2023/03/07 03:55:15;;;;;;;21.50;7.80;;;;;;;-5.18;92.64;98146.16;106268;1253;59307;-70
2023/03/07 03:58:03;;;;;;;17.70;6.40;;;;;;;-5.17;92.49;98140.41;106169;1255;60742;-71
2023/03/07 04:00:50;;;;;;;18.90;6.80;;;;;;;-5.17;92.22;98140.25;106044;1253;72827;-71
2023/03/07 04:03:43;;;;;;;20.70;7.20;;;;;;;-5.16;91.76;98136.23;105982;1255;67451;-68
2023/03/07 04:06:33;;;;;;;14.10;5.20;;;;;;;-5.16;91.59;98136.21;105596;1255;73265;-74
2023/03/07 04:09:20;;;;;;;14.70;5.50;;;;;;;-5.19;92.00;98128.92;105014;1256;1002985;-70
2023/03/07 04:12:08;;;;;;;18.70;6.70;;;;;;;-5.21;92.14;98128.86;105818;1252;61899;-70
2023/03/07 04:14:55;;;;;;;19.20;7.60;;;;;;;-5.27;92.45;98121.16;105955;1253;71252;-72
2023/03/07 04:17:42;;;;;;;18.50;7.00;;;;;;;-5.24;92.92;98124.29;105158;1255;1002959;-71
2023/03/07 04:20:29;;;;;;;18.90;7.40;;;;;;;-5.24;92.97;98119.64;105187;1253;1003095;-70
2023/03/07 04:23:18;;;;;;;20.00;6.50;;;;;;;-5.24;92.60;98119.31;106042;1255;59174;-72
2023/03/07 04:26:08;;;;;;;16.20;6.30;;;;;;;-5.23;92.85;98117.88;106519;1253;59391;-72
2023/03/07 04:28:55;;;;;;;13.50;5.50;;;;;;;-5.24;92.62;98112.58;106410;1253;72103;-72
2023/03/07 04:31:46;;;;;;;20.40;7.30;;;;;;;-5.27;93.19;98110.08;106124;1254;67864;-73
2023/03/07 04:34:33;;;;;;;19.60;7.50;;;;;;;-5.27;93.22;98106.65;105247;1256;1003291;-70
2023/03/07 04:37:20;;;;;;;18.40;6.30;;;;;;;-5.26;93.56;98100.56;105199;1257;1003430;-73
2023/03/07 04:40:09;;;;;;;20.50;7.10;;;;;;;-5.26;93.89;98096.40;104893;1258;1003035;-73
2023/03/07 04:42:56;;;;;;;18.70;7.10;;;;;;;-5.26;93.57;98089.99;105641;1254;70633;-73
2023/03/07 04:45:42;;;;;;;17.00;6.80;;;;;;;-5.27;94.15;98089.85;105884;1256;69363;-71
2023/03/07 04:48:29;;;;;;;23.80;9.30;;;;;;;-5.27;94.29;98084.21;105883;1254;72504;-71
2023/03/07 04:51:17;;;;;;;14.20;6.00;;;;;;;-5.27;94.20;98080.85;105730;1257;59917;-71
2023/03/07 04:54:04;;;;;;;16.10;6.40;;;;;;;-5.25;94.61;98076.96;105952;1255;60656;-71
2023/03/07 04:56:51;;;;;;;19.80;7.90;;;;;;;-5.24;94.75;98076.23;105916;1253;70965;-69
2023/03/07 04:59:39;;;;;;;19.30;7.20;;;;;;;-5.23;94.58;98074.13;106003;1256;69433;-70
2023/03/07 05:02:26;;;;;;;16.20;6.00;;;;;;;-5.23;94.63;98072.73;105001;1253;1003222;-72
2023/03/07 05:05:13;;;;;;;16.70;6.10;;;;;;;-5.22;94.70;98067.84;106098;1253;60715;-74
2023/03/07 05:08:02;;;;;;;27.30;9.30;;;;;;;-5.18;95.11;98068.88;105873;1257;59225;-72
2023/03/07 05:10:50;;;;;;;22.90;9.10;;;;;;;-5.13;94.87;98069.88;105968;1253;73740;-69
2023/03/07 05:13:37;;;;;;;22.30;9.00;;;;;;;-5.09;94.58;98063.27;105716;1253;67196;-68
2023/03/07 05:16:25;;;;;;;17.40;6.70;;;;;;;-5.05;94.33;98052.57;106052;1253;72093;-70
2023/03/07 05:19:12;;;;;;;18.30;7.50;;;;;;;-5.06;94.27;98044.11;105828;1253;59357;-72
2023/03/07 05:22:00;;;;;;;23.20;8.90;;;;;;;-5.07;93.91;98039.66;105739;1258;59675;-71
2023/03/07 05:24:47;;;;;;;21.40;8.00;;;;;;;-5.07;93.60;98036.56;105722;1257;71595;-72
2023/03/07 05:27:34;;;;;;;19.90;8.30;;;;;;;-5.07;93.85;98034.85;105782;1253;68873;-68
2023/03/07 05:30:21;;;;;;;26.10;10.70;;;;;;;-5.06;94.00;98031.16;105968;1253;74213;-70
2023/03/07 05:33:09;;;;;;;27.80;9.90;;;;;;;-5.02;94.13;98032.15;105484;1253;1003091;-70
2023/03/07 05:36:02;;;;;;;22.70;9.50;;;;;;;-4.97;94.45;98030.36;106021;1256;59888;-72
2023/03/07 05:38:52;;;;;;;25.00;10.50;;;;;;;-4.90;94.16;98028.16;105982;1253;73651;-72
2023/03/07 05:41:39;;;;;;;24.00;9.50;;;;;;;-4.84;93.95;98026.13;106052;1253;67786;-73
2023/03/07 05:44:26;;;;;;;20.00;6.10;;;;;;;-4.77;93.78;98024.25;105867;1253;1002459;-71
2023/03/07 05:47:15;;;;;;;18.80;7.20;;;;;;;-4.71;93.60;98022.08;106186;1253;59332;-73
2023/03/07 05:50:02;;;;;;;23.90;8.90;;;;;;;-4.65;93.58;98020.23;105881;1257;60672;-74
2023/03/07 05:52:49;;;;;;;24.60;8.50;;;;;;;-4.57;93.44;98014.64;106118;1256;73438;-74
2023/03/07 05:55:36;;;;;;;26.20;10.30;;;;;;;-4.47;93.10;98011.39;105925;1252;66986;-73
2023/03/07 05:58:23;;;;;;;21.90;7.90;;;;;;;-4.37;92.87;98001.55;105990;1256;74200;-73
2023/03/07 06:01:10;;;;;;;21.00;8.40;;;;;;;-4.28;92.39;97998.30;106254;1255;59247;-74
2023/03/07 06:03:57;;;;;;;22.80;8.00;;;;;;;-4.17;92.05;97996.58;106062;1256;59361;-74
2023/03/07 06:06:44;;;;;;;24.70;9.10;;;;;;;-4.07;91.64;97991.20;105193;1253;1003614;-72
2023/03/07 06:09:31;;;;;;;23.80;9.00;;;;;;;-3.98;91.00;97983.48;105907;1253;67744;-73
2023/03/07 06:12:18;;;;;;;22.50;8.70;;;;;;;-3.89;90.72;97981.10;105805;1256;74274;-72
2023/03/07 06:15:07;;;;;;;23.90;8.30;;;;;;;-3.79;89.80;97980.07;106103;1253;59443;-73
2023/03/07 06:17:54;;;;;;;20.20;7.90;;;;;;;-3.69;89.25;97982.50;106112;1256;62086;-73
2023/03/07 06:20:42;;;;;;;19.40;7.20;;;;;;;-3.58;88.87;97978.81;106008;1253;72097;-74
2023/03/07 06:23:33;;;;;;;19.90;7.70;;;;;;;-3.47;87.94;97979.42;107164;1253;69270;-73
2023/03/07 06:26:20;;;;;;;22.20;8.30;;;;;;;-3.36;87.06;97977.95;105801;1254;73223;-74
2023/03/07 06:29:09;;;;;;;20.40;7.90;;;;;;;-3.21;86.51;97975.09;105968;1254;59278;-74
2023/03/07 06:31:56;;;;;;;18.30;6.40;;;;;;;-3.08;85.76;97969.83;105967;1258;59298;-74
2023/03/07 06:34:43;;;;;;;21.60;7.90;;;;;;;-2.98;84.78;97961.31;105977;1253;72411;-73
2023/03/07 06:37:30;;;;;;;23.70;8.70;;;;;;;-2.92;84.34;97953.52;105737;1253;68476;-74
2023/03/07 06:40:18;;;;;;;21.90;7.50;;;;;;;-2.89;83.44;97942.93;106244;1253;73101;-75
2023/03/07 06:43:05;;;;;;;21.10;7.80;;;;;;;-2.81;83.12;97945.42;106168;1253;59889;-73
2023/03/07 06:45:53;;;;;;;16.30;6.30;;;;;;;-2.72;82.68;97940.09;105070;1254;1004040;-74
2023/03/07 06:48:41;;;;;;;16.60;6.90;;;;;;;-2.64;81.94;97934.92;105989;1253;73028;-74
2023/03/07 06:51:30;;;;;;;17.60;6.10;;;;;;;-2.51;81.97;97929.48;106042;1255;68473;-75
2023/03/07 06:54:17;;;;;;;18.00;6.80;;;;;;;-2.37;80.93;97919.80;105980;1255;74239;-74
2023/03/07 06:57:04;;;;;;;16.10;6.70;;;;;;;-2.23;80.11;97917.10;105806;1259;59228;-72
2023/03/07 06:59:51;;;;;;;16.00;6.60;;;;;;;-2.00;79.19;97917.08;106171;1255;60585;-72
2023/03/07 07:02:38;;;;;;;16.10;5.80;;;;;;;-1.76;77.26;97909.91;105860;1256;71927;-72
2023/03/07 07:05:25;;;;;;;15.50;5.60;;;;;;;-1.53;76.38;97905.20;106087;1253;67634;-73
2023/03/07 07:08:13;;;;;;;13.30;5.10;;;;;;;-1.28;74.83;97905.33;105886;1253;74309;-74
2023/03/07 07:11:00;;;;;;;13.80;5.10;;;;;;;-1.06;73.33;97888.97;106009;1255;59240;-73
2023/03/07 07:13:49;;;;;;;11.70;4.80;;;;;;;-0.91;71.67;97883.80;106618;1255;60893;-75
2023/03/07 07:16:38;;;;;;;14.00;5.30;;;;;;;-0.82;71.07;97877.84;106030;1252;72622;-77
2023/03/07 07:19:26;;;;;;;13.70;6.00;;;;;;;-0.74;70.62;97872.92;105825;1255;67662;-73
2023/03/07 07:22:16;;;;;;;12.60;4.80;;;;;;;-0.66;69.54;97867.95;105921;1253;74298;-74
2023/03/07 07:25:04;;;;;;;14.70;6.00;;;;;;;-0.66;68.97;97851.34;105629;1254;59502;-75
2023/03/07 07:27:51;;;;;;;14.60;5.90;;;;;;;-0.61;68.55;97849.33;105961;1258;60805;-73
2023/03/07 07:30:39;;;;;;;13.40;5.80;;;;;;;-0.46;68.04;97846.54;106021;1254;72714;-73
2023/03/07 07:33:26;;;;;;;13.40;5.60;;;;;;;-0.44;66.99;97843.13;105602;1259;67621;-75
2023/03/07 07:36:13;;;;;;;14.70;6.00;;;;;;;-0.30;66.07;97834.82;105626;1254;72693;-73
2023/03/07 07:39:05;;;;;;;14.50;5.00;;;;;;;0.26;63.80;97835.67;106216;1259;59381;-72
2023/03/07 07:41:52;;;;;;;15.60;6.10;;;;;;;1.18;61.00;97832.98;105948;1260;61618;-72
2023/03/07 07:44:40;;;;;;;14.20;6.00;;;;;;;1.84;57.53;97823.80;105769;1254;73768;-74
2023/03/07 07:47:29;;;;;;;14.90;6.80;;;;;;;2.28;56.09;97819.36;105134;1258;1003041;-73
2023/03/07 07:50:19;;;;;;;15.90;6.80;;;;;;;2.58;54.34;97815.89;105751;1254;74557;-73
2023/03/07 07:53:06;;;;;;;15.10;7.60;;;;;;;3.04;53.17;97799.17;105524;1260;59536;-72
2023/03/07 07:55:53;;;;;;;14.40;6.80;;;;;;;3.35;52.10;97788.05;105806;1254;60882;-72
2023/03/07 07:58:40;;;;;;;13.90;6.50;;;;;;;3.65;50.92;97776.05;105932;1253;73789;-71
2023/03/07 08:01:28;;;;;;;16.00;6.10;;;;;;;3.17;50.87;97770.09;106055;1256;68899;-73
2023/03/07 08:04:14;;;;;;;15.60;6.30;;;;;;;2.91;51.96;97773.14;105721;1252;73247;-71
2023/03/07 08:07:01;;;;;;;14.80;6.40;;;;;;;2.60;51.86;97765.70;105887;1256;59249;-72
2023/03/07 08:09:48;;;;;;;13.90;5.60;;;;;;;2.25;53.08;97759.54;106349;1255;60902;-73
2023/03/07 08:12:36;;;;;;;13.60;5.80;;;;;;;1.82;54.10;97766.43;106018;1256;74106;-71
2023/03/07 08:15:24;;;;;;;13.40;5.70;;;;;;;1.53;54.70;97758.68;105696;1253;69476;-74
2023/03/07 08:18:11;;;;;;;14.40;5.50;;;;;;;1.32;55.04;97754.60;104995;1253;1002994;-72
2023/03/07 08:20:58;;;;;;;15.10;6.10;;;;;;;1.16;55.09;97755.11;105897;1255;59423;-75
2023/03/07 08:23:45;;;;;;;13.10;5.60;;;;;;;1.31;55.01;97742.08;105926;1256;61694;-74
2023/03/07 08:26:32;;;;;;;14.10;6.50;;;;;;;2.21;52.74;97741.36;105959;1252;72852;-73
2023/03/07 08:29:18;;;;;;;12.20;5.40;;;;;;;2.29;51.66;97738.57;106044;1256;67943;-77
2023/03/07 08:32:05;;;;;;;16.50;6.40;;;;;;;1.67;53.18;97742.44;105742;1257;72383;-73
2023/03/07 08:34:52;;;;;;;14.70;5.90;;;;;;;1.14;54.46;97740.52;105786;1252;59245;-74
2023/03/07 08:37:39;;;;;;;16.30;6.40;;;;;;;0.73;55.90;97736.60;105771;1253;1005154;-75
2023/03/07 08:40:28;;;;;;;14.90;6.30;;;;;;;0.47;56.97;97726.30;105918;1255;71267;-74
2023/03/07 08:43:15;;;;;;;15.00;6.50;;;;;;;0.23;57.80;97718.49;105984;1257;66475;-76
2023/03/07 08:46:03;;;;;;;16.60;6.10;;;;;;;0.15;58.65;97706.64;105861;1256;70387;-74
2023/03/07 08:48:50;;;;;;;15.00;6.40;;;;;;;0.37;58.22;97695.48;105957;1255;59423;-76
2023/03/07 08:51:37;;;;;;;15.80;5.90;;;;;;;0.67;57.51;97690.98;106092;1255;59369;-75
2023/03/07 08:54:24;;;;;;;19.20;7.40;;;;;;;0.63;57.00;97685.55;106018;1255;72034;-73
2023/03/07 08:57:10;;;;;;;19.20;6.90;;;;;;;0.47;57.84;97677.48;106221;1256;69490;-75
2023/03/07 08:59:57;;;;;;;16.80;7.10;;;;;;;0.35;58.48;97671.73;105768;1255;71398;-75
2023/03/07 09:02:43;;;;;;;24.30;8.50;;;;;;;0.13;59.57;97676.15;106771;1253;59289;-72
2023/03/07 09:05:31;;;;;;;18.10;8.70;;;;;;;0.00;60.40;97655.41;106127;1255;60562;-74
2023/03/07 09:08:18;;;;;;;19.60;7.70;;;;;;;-0.12;61.24;97655.77;105404;1255;1003092;-72
2023/03/07 09:11:04;;;;;;;20.50;8.90;;;;;;;-0.24;61.89;97656.80;105616;1255;1002597;-75
2023/03/07 09:13:52;;;;;;;20.50;9.00;;;;;;;-0.39;62.66;97658.92;106296;1255;74233;-71
2023/03/07 09:16:39;;;;;;;21.50;8.20;;;;;;;-0.61;64.12;97660.48;105493;1253;1003515;-72
2023/03/07 09:19:27;;;;;;;18.70;8.70;;;;;;;-0.74;65.15;97637.49;105934;1255;60590;-73
2023/03/07 09:22:13;;;;;;;23.40;10.20;;;;;;;-0.81;65.83;97636.23;105053;1254;1002870;-74
2023/03/07 09:25:00;;;;;;;25.60;10.50;;;;;;;-0.85;66.66;97620.33;106315;1256;68481;-74
2023/03/07 09:27:48;;;;;;;25.80;11.20;;;;;;;-0.89;67.48;97614.00;106330;1254;73059;-73
2023/03/07 09:30:37;;;;;;;24.90;10.20;;;;;;;-0.90;68.51;97604.88;105865;1255;59334;-74
2023/03/07 09:33:24;;;;;;;25.40;11.30;;;;;;;-1.01;70.60;97611.87;106166;1255;59374;-73
2023/03/07 09:36:12;;;;;;;25.60;11.00;;;;;;;-1.07;71.46;97583.06;105744;1256;73557;-70
2023/03/07 09:38:59;;;;;;;24.80;10.70;;;;;;;-1.06;72.75;97585.06;105847;1254;66523;-71
2023/03/07 09:42:27;;;;;;;27.60;12.00;;;;;;;-1.06;74.03;97578.45;105791;1254;73105;-68
2023/03/07 09:45:17;;;;;;;28.20;12.80;;;;;;;-1.14;76.12;97571.86;105998;1253;59332;-71
2023/03/07 09:48:48;;;;;;;22.70;9.60;;;;;;;-1.18;77.04;97555.09;105289;1259;1002553;-72
2023/03/07 09:51:41;;;;;;;29.40;12.20;;;;;;;-1.22;77.45;97545.48;106009;1254;72076;-74
2023/03/07 09:54:59;;;;;;;27.80;12.90;;;;;;;-1.25;79.05;97547.89;105039;1256;1003758;-74
2023/03/07 09:57:54;;;;;;;29.50;11.80;;;;;;;-1.30;80.73;97533.52;105986;1254;73029;-75
2023/03/07 10:00:44;;;;;;;27.00;11.50;;;;;;;-1.30;81.72;97533.30;105294;1256;1003425;-72
2023/03/07 10:03:52;;;;;;;32.30;13.50;;;;;;;-1.29;82.40;97529.23;106471;1255;62084;-75
2023/03/07 10:06:42;;;;;;;31.60;13.70;;;;;;;-1.31;83.59;97528.84;106064;1253;70817;-74
2023/03/07 10:09:29;;;;;;;27.40;11.80;;;;;;;-1.34;84.24;97530.13;106195;1256;69287;-73
2023/03/07 10:13:10;;;;;;;28.90;12.20;;;;;;;-1.38;85.21;97521.67;105984;1254;71203;-77
2023/03/07 10:16:14;;;;;;;29.50;13.90;;;;;;;-1.43;85.76;97514.89;105247;1263;59299;-74
2023/03/07 10:19:08;;;;;;;34.90;14.50;;;;;;;-1.51;86.29;97513.01;105485;1263;60717;-73
2023/03/07 10:22:11;;;;;;;29.60;12.60;;;;;;;-1.49;86.63;97505.09;105187;1263;72853;-72
2023/03/07 10:25:28;;;;;;;36.80;14.00;;;;;;;-1.48;87.10;97501.00;105209;1263;69131;-73
2023/03/07 10:28:27;;;;;;;33.50;13.60;;;;;;;-1.45;87.09;97495.19;104690;1264;1002473;-72
2023/03/07 10:31:17;;;;;;;31.80;13.80;;;;;;;-1.40;87.12;97480.73;105277;1260;59425;-75
2023/03/07 10:34:25;;;;;;;34.10;14.60;;;;;;;-1.30;86.83;97477.79;105285;1260;60419;-72
2023/03/07 10:37:20;;;;;;;32.40;13.90;;;;;;;-1.25;86.52;97463.33;105721;1260;71072;-71
2023/03/07 10:40:29;;;;;;;30.20;13.90;;;;;;;-1.22;86.05;97456.54;105388;1263;68437;-74
2023/03/07 10:43:28;;;;;;;30.20;13.50;;;;;;;-1.17;86.25;97445.77;105280;1265;71676;-73
2023/03/07 10:46:29;;;;;;;32.20;14.60;;;;;;;-0.99;85.80;97441.52;105239;1260;59364;-72
2023/03/07 10:49:32;;;;;;;32.10;14.50;;;;;;;-1.00;85.61;97439.00;105739;1263;59434;-74
2023/03/07 10:52:28;;;;;;;32.40;16.70;;;;;;;-0.93;85.44;97437.60;105922;1257;72841;-74
2023/03/07 10:55:36;;;;;;;34.50;15.20;;;;;;;-0.85;85.03;97426.55;106149;1255;66913;-75
2023/03/07 10:58:27;;;;;;;34.50;15.10;;;;;;;-0.81;85.26;97428.55;106084;1253;70291;-76
2023/03/07 11:01:20;;;;;;;28.10;13.20;;;;;;;-0.76;85.55;97420.36;105987;1256;59589;-73
2023/03/07 11:04:41;;;;;;;27.70;14.00;;;;;;;-0.77;85.62;97415.55;106059;1256;60641;-73
2023/03/07 11:07:35;;;;;;;30.90;13.80;;;;;;;-0.86;86.85;97423.35;106042;1254;72481;-75
2023/03/07 11:10:40;;;;;;;28.50;12.50;;;;;;;-0.84;86.77;97404.75;106047;1256;67724;-73
2023/03/07 11:13:28;;;;;;;32.20;14.10;;;;;;;-0.78;87.33;97393.67;106378;1255;73167;-73
2023/03/07 11:16:20;;;;;;;27.30;13.20;;;;;;;-0.65;87.17;97387.15;105863;1253;59280;-73
2023/03/07 11:19:31;;;;;;;27.40;11.70;;;;;;;-0.57;87.02;97383.39;106429;1255;60370;-74
2023/03/07 11:22:22;;;;;;;33.60;13.90;;;;;;;-0.49;87.26;97381.42;105828;1257;73863;-72
2023/03/07 11:25:11;;;;;;;30.80;13.20;;;;;;;-0.61;87.58;97380.60;105906;1260;66465;-72
2023/03/07 11:27:58;;;;;;;32.30;13.40;;;;;;;-0.72;88.44;97367.30;105319;1257;1002313;-73
2023/03/07 11:30:59;;;;;;;28.50;13.30;;;;;;;-0.74;88.84;97364.64;105809;1255;59413;-71
2023/03/07 11:34:14;;;;;;;25.50;11.80;;;;;;;-0.81;89.26;97371.28;105789;1257;60626;-73
2023/03/07 11:37:08;;;;;;;29.10;13.60;;;;;;;-0.89;89.82;97362.10;105818;1258;72322;-72
2023/03/07 11:40:22;;;;;;;26.10;12.00;;;;;;;-0.90;90.16;97345.63;106232;1254;68318;-73
2023/03/07 11:43:20;;;;;;;26.60;11.50;;;;;;;-0.88;90.26;97349.87;105791;1254;1003281;-75
2023/03/07 11:47:00;;;;;;;30.00;13.20;;;;;;;-0.91;90.38;97345.55;106332;1255;59612;-74
2023/03/07 11:50:40;;;;;;;35.50;13.40;;;;;;;-0.85;90.50;97338.81;106382;1254;61676;-72
2023/03/07 11:54:04;;;;;;;29.20;12.90;;;;;;;-0.79;90.67;97333.30;105496;1264;74776;-73
2023/03/07 11:56:58;;;;;;;34.20;15.70;;;;;;;-0.72;90.80;97326.91;105283;1263;69256;-71
2023/03/07 12:00:19;;;;;;;31.20;13.70;;;;;;;-0.66;90.89;97329.80;105596;1265;74374;-73
2023/03/07 12:03:15;;;;;;;29.90;12.30;;;;;;;-0.67;91.26;97337.14;105743;1261;59688;-74
2023/03/07 12:06:25;;;;;;;30.80;13.90;;;;;;;-0.65;91.78;97337.04;105864;1263;60544;-71
2023/03/07 12:09:56;;;;;;;29.80;12.80;;;;;;;-0.62;91.87;97334.52;105539;1266;72970;-71
2023/03/07 12:13:10;;;;;;;31.70;14.30;;;;;;;-0.57;92.01;97329.21;105306;1263;65808;-73
2023/03/07 12:16:52;;;;;;;27.30;12.70;;;;;;;-0.52;91.97;97325.36;105515;1265;74077;-74
2023/03/07 12:20:07;;;;;;;27.70;12.40;;;;;;;-0.47;92.35;97317.17;105490;1267;60180;-72
2023/03/07 12:23:06;;;;;;;28.90;13.10;;;;;;;-0.37;92.72;97320.58;105157;1267;180194;-76
2023/03/07 12:25:58;;;;;;;28.10;12.70;;;;;;;-0.31;93.08;97322.42;104626;1270;74424;-75
2023/03/07 12:28:52;;;;;;;31.30;12.70;;;;;;;-0.26;93.10;97320.07;105910;1260;66952;-73
2023/03/07 12:31:46;;;;;;;24.10;11.80;;;;;;;-0.19;93.09;97321.48;105878;1262;72565;-75
2023/03/07 12:35:03;;;;;;;25.60;12.30;;;;;;;-0.10;92.94;97316.94;105828;1261;59920;-74
2023/03/07 12:38:16;;;;;;;28.60;12.90;;;;;;;0.06;92.40;97303.87;105990;1264;60879;-74
2023/03/07 12:41:36;;;;;;;31.90;14.30;;;;;;;0.13;92.17;97298.39;105560;1261;71620;-72
2023/03/07 12:45:17;;;;;;;30.10;12.80;;;;;;;0.21;91.87;97296.18;105297;1268;69328;-74
2023/03/07 12:48:23;;;;;;;28.10;12.70;;;;;;;0.40;91.02;97295.23;105515;1260;74285;-73
2023/03/07 12:51:38;;;;;;;28.00;13.80;;;;;;;0.49;90.41;97282.85;105954;1266;59823;-75
2023/03/07 12:54:33;;;;;;;22.70;10.80;;;;;;;0.59;89.91;97283.11;105615;1264;59640;-74
2023/03/07 12:57:33;;;;;;;24.20;10.90;;;;;;;0.61;89.35;97283.23;105921;1253;73328;-74
2023/03/07 13:00:22;;;;;;;25.30;12.00;;;;;;;0.66;88.89;97276.20;105878;1256;69360;-74
2023/03/07 13:03:23;;;;;;;27.60;12.00;;;;;;;0.74;88.72;97277.82;106065;1254;71742;-74
2023/03/07 13:06:17;;;;;;;24.00;10.60;;;;;;;0.80;87.96;97278.59;105566;1260;59509;-74
2023/03/07 13:09:05;;;;;;;23.90;11.20;;;;;;;0.87;87.52;97276.44;106048;1257;61951;-74
2023/03/07 13:12:21;;;;;;;18.60;8.50;;;;;;;0.93;86.84;97274.36;106122;1254;73327;-74